createdAt,value
2017-12-11T00:01:00.413Z,2.70
2017-12-11T00:03:28.802Z,2.70
2017-12-11T00:05:57.178Z,2.70
2017-12-11T00:08:25.579Z,2.70
2017-12-11T00:10:54.065Z,2.60
2017-12-11T00:13:22.885Z,2.50
2017-12-11T00:15:50.639Z,2.50
2017-12-11T00:18:19.011Z,2.60
2017-12-11T00:20:47.426Z,2.60
2017-12-11T00:23:15.820Z,2.60
2017-12-11T00:25:43.527Z,2.60
2017-12-11T00:28:11.924Z,2.50
2017-12-11T00:30:40.314Z,2.60
2017-12-11T00:33:08.699Z,2.50
2017-12-11T00:35:36.750Z,2.50
2017-12-11T00:38:05.153Z,2.50
2017-12-11T00:40:33.596Z,2.40
2017-12-11T00:43:01.649Z,2.50
2017-12-11T00:45:29.724Z,2.50
2017-12-11T00:47:57.772Z,2.50
2017-12-11T00:50:26.587Z,2.60
2017-12-11T00:52:54.975Z,2.60
2017-12-11T00:55:23.348Z,2.60
2017-12-11T00:57:51.461Z,2.60
2017-12-11T01:00:19.836Z,2.60
2017-12-11T01:02:47.672Z,2.50
2017-12-11T01:05:15.394Z,2.60
2017-12-11T01:07:43.890Z,2.60
2017-12-11T01:10:11.614Z,2.60
2017-12-11T01:12:39.988Z,2.60
2017-12-11T01:15:08.392Z,2.60
2017-12-11T01:17:37.530Z,2.50
2017-12-11T01:20:05.918Z,2.50
2017-12-11T01:22:34.318Z,2.50
2017-12-11T01:25:02.701Z,2.40
2017-12-11T01:27:31.137Z,2.50
2017-12-11T01:29:59.521Z,2.40
2017-12-11T01:32:27.565Z,2.40
2017-12-11T01:34:55.279Z,2.40
2017-12-11T01:37:23.675Z,2.30
2017-12-11T01:39:51.742Z,2.30
2017-12-11T01:42:19.454Z,2.30
2017-12-11T01:44:47.295Z,2.30
2017-12-11T01:47:15.138Z,2.30
2017-12-11T01:49:43.258Z,2.20
2017-12-11T01:52:11.650Z,2.30
2017-12-11T01:54:40.026Z,2.30
2017-12-11T01:57:08.409Z,2.30
2017-12-11T01:59:36.795Z,2.20
2017-12-11T02:02:04.841Z,2.20
2017-12-11T02:04:33.226Z,2.30
2017-12-11T02:07:01.610Z,2.30
2017-12-11T02:09:29.645Z,2.30
2017-12-11T02:11:58.011Z,2.30
2017-12-11T02:14:27.156Z,2.30
2017-12-11T02:16:55.210Z,2.30
2017-12-11T02:19:22.921Z,2.40
2017-12-11T02:21:50.646Z,2.40
2017-12-11T02:24:18.694Z,2.30
2017-12-11T02:26:46.414Z,2.30
2017-12-11T02:29:14.138Z,2.40
2017-12-11T02:31:42.091Z,2.40
2017-12-11T02:34:09.802Z,2.40
2017-12-11T02:36:37.529Z,2.40
2017-12-11T02:39:05.574Z,2.40
2017-12-11T02:41:33.293Z,2.40
2017-12-11T02:44:01.046Z,2.40
2017-12-11T02:46:28.758Z,2.40
2017-12-11T02:48:56.490Z,2.40
2017-12-11T02:51:24.216Z,2.30
2017-12-11T02:53:52.655Z,2.30
2017-12-11T02:56:21.158Z,2.20
2017-12-11T02:58:49.547Z,2.10
2017-12-11T03:01:17.925Z,2.10
2017-12-11T03:03:45.975Z,2.10
2017-12-11T03:06:14.555Z,2.10
2017-12-11T03:08:42.927Z,2.10
2017-12-11T03:11:11.305Z,2.10
2017-12-11T03:13:39.358Z,2.10
2017-12-11T03:16:08.507Z,2.10
2017-12-11T03:18:36.886Z,2.10
2017-12-11T03:21:05.274Z,2.20
2017-12-11T03:23:33.318Z,2.20
2017-12-11T03:26:01.698Z,2.20
2017-12-11T03:28:30.090Z,2.20
2017-12-11T03:30:57.802Z,2.20
2017-12-11T03:33:26.938Z,2.10
2017-12-11T03:35:55.321Z,2.10
2017-12-11T03:38:23.705Z,2.10
2017-12-11T03:40:51.749Z,2.10
2017-12-11T03:43:19.805Z,2.10
2017-12-11T03:45:48.190Z,2.20
2017-12-11T03:48:16.574Z,2.30
2017-12-11T03:50:44.963Z,2.30
2017-12-11T03:53:13.387Z,2.20
2017-12-11T03:55:42.530Z,2.20
2017-12-11T03:58:10.914Z,2.20
2017-12-11T04:00:39.346Z,2.10
2017-12-11T04:03:07.888Z,2.10
2017-12-11T04:05:36.282Z,2.10
2017-12-11T04:08:04.008Z,2.20
2017-12-11T04:10:32.388Z,2.20
2017-12-11T04:13:00.442Z,2.20
2017-12-11T04:15:28.813Z,2.20
2017-12-11T04:17:57.187Z,2.30
2017-12-11T04:20:25.588Z,2.30
2017-12-11T04:22:53.961Z,2.40
2017-12-11T04:25:22.339Z,2.40
2017-12-11T04:27:50.733Z,2.40
2017-12-11T04:30:19.117Z,2.40
2017-12-11T04:32:47.503Z,2.40
2017-12-11T04:35:15.896Z,2.40
2017-12-11T04:37:44.273Z,2.40
2017-12-11T04:40:12.642Z,2.50
2017-12-11T04:42:41.032Z,2.50
2017-12-11T04:45:09.410Z,2.50
2017-12-11T04:47:37.778Z,2.50
2017-12-11T04:50:06.166Z,2.60
2017-12-11T04:52:35.298Z,2.60
2017-12-11T04:55:03.354Z,2.50
2017-12-11T04:57:32.189Z,2.60
2017-12-11T05:00:00.571Z,2.50
2017-12-11T05:02:28.612Z,2.50
2017-12-11T05:04:57.003Z,2.50
2017-12-11T05:07:25.388Z,2.50
2017-12-11T05:09:53.771Z,2.50
2017-12-11T05:12:21.823Z,2.50
2017-12-11T05:14:50.198Z,2.50
2017-12-11T05:17:18.582Z,2.60
2017-12-11T05:19:46.980Z,2.60
2017-12-11T05:22:15.366Z,2.50
2017-12-11T05:24:43.746Z,2.60
2017-12-11T05:27:11.818Z,2.60
2017-12-11T05:29:40.198Z,2.60
2017-12-11T05:32:08.585Z,2.60
2017-12-11T05:34:36.636Z,2.60
2017-12-11T05:37:05.018Z,2.60
2017-12-11T05:39:33.447Z,2.60
2017-12-11T05:42:01.846Z,2.60
2017-12-11T05:44:30.225Z,2.60
2017-12-11T05:46:58.616Z,2.60
2017-12-11T05:49:27.004Z,2.60
2017-12-11T05:51:55.376Z,2.60
2017-12-11T05:54:23.750Z,2.60
2017-12-11T05:56:52.129Z,2.60
2017-12-11T05:59:20.502Z,2.60
2017-12-11T06:01:48.890Z,2.70
2017-12-11T06:04:17.290Z,2.70
2017-12-11T06:06:45.670Z,2.70
2017-12-11T06:09:14.112Z,2.70
2017-12-11T06:11:42.513Z,2.70
2017-12-11T06:14:10.946Z,2.70
2017-12-11T06:16:40.537Z,2.70
2017-12-11T06:19:09.705Z,2.80
2017-12-11T06:21:38.085Z,2.70
2017-12-11T06:24:06.469Z,2.70
2017-12-11T06:26:34.960Z,2.70
2017-12-11T06:29:03.391Z,2.70
2017-12-11T06:31:31.765Z,2.70
2017-12-11T06:34:00.229Z,2.80
2017-12-11T06:36:28.613Z,2.70
2017-12-11T06:38:57.004Z,2.80
2017-12-11T06:41:25.382Z,2.90
2017-12-11T06:43:53.949Z,2.90
2017-12-11T06:46:22.342Z,2.80
2017-12-11T06:48:50.739Z,2.80
2017-12-11T06:51:18.950Z,2.80
2017-12-11T06:53:48.319Z,2.80
2017-12-11T06:56:16.734Z,2.70
2017-12-11T06:58:45.886Z,2.70
2017-12-11T07:01:14.261Z,2.80
2017-12-11T07:03:42.650Z,2.80
2017-12-11T07:06:11.028Z,2.90
2017-12-11T07:08:39.529Z,3.00
2017-12-11T07:11:08.353Z,3.10
2017-12-11T07:13:36.750Z,3.10
2017-12-11T07:16:05.130Z,3.10
2017-12-11T07:18:33.538Z,3.20
2017-12-11T07:21:02.685Z,3.20
2017-12-11T07:23:31.067Z,3.20
2017-12-11T07:25:59.569Z,3.30
2017-12-11T07:28:28.214Z,3.30
2017-12-11T07:30:56.595Z,3.30
2017-12-11T07:33:24.987Z,3.30
2017-12-11T07:35:53.652Z,3.40
2017-12-11T07:38:22.146Z,3.50
2017-12-11T07:40:50.792Z,3.40
2017-12-11T07:43:19.288Z,3.40
2017-12-11T07:45:47.796Z,3.40
2017-12-11T07:48:15.850Z,3.50
2017-12-11T07:50:44.486Z,3.50
2017-12-11T07:53:13.854Z,3.50
2017-12-11T07:55:42.446Z,3.50
2017-12-11T07:58:11.151Z,3.60
2017-12-11T08:00:39.722Z,3.60
2017-12-11T08:03:08.112Z,3.60
2017-12-11T08:05:36.491Z,3.60
2017-12-11T08:08:05.131Z,3.60
2017-12-11T08:10:34.116Z,3.60
2017-12-11T08:13:03.149Z,3.60
2017-12-11T08:15:32.653Z,3.70
2017-12-11T08:18:01.041Z,3.70
2017-12-11T08:20:29.599Z,3.80
2017-12-11T08:22:59.015Z,3.80
2017-12-11T08:25:27.490Z,3.80
2017-12-11T08:27:55.868Z,3.90
2017-12-11T08:30:24.241Z,3.90
2017-12-11T08:32:52.896Z,4.00
2017-12-11T08:35:21.599Z,4.00
2017-12-11T08:37:51.030Z,4.10
2017-12-11T08:40:19.607Z,4.10
2017-12-11T08:42:48.091Z,4.20
2017-12-11T08:45:16.462Z,4.20
2017-12-11T08:47:45.850Z,4.40
2017-12-11T08:50:15.286Z,4.40
2017-12-11T08:52:44.432Z,4.40
2017-12-11T08:55:13.102Z,4.30
2017-12-11T08:57:41.740Z,4.40
2017-12-11T09:00:10.266Z,4.40
2017-12-11T09:02:38.658Z,4.30
2017-12-11T09:05:07.382Z,4.30
2017-12-11T09:07:35.850Z,4.30
2017-12-11T09:10:05.280Z,4.20
2017-12-11T09:12:33.662Z,4.20
2017-12-11T09:15:02.306Z,4.30
2017-12-11T09:17:30.971Z,4.30
2017-12-11T09:19:59.342Z,4.30
2017-12-11T09:22:27.982Z,4.30
2017-12-11T09:24:56.505Z,4.20
2017-12-11T09:27:25.142Z,4.20
2017-12-11T09:29:53.689Z,4.20
2017-12-11T09:32:23.113Z,4.40
2017-12-11T09:34:52.493Z,4.40
2017-12-11T09:37:21.901Z,4.40
2017-12-11T09:39:51.357Z,4.40
2017-12-11T09:42:21.114Z,4.40
2017-12-11T09:44:49.494Z,4.40
2017-12-11T09:47:18.081Z,4.40
2017-12-11T09:49:46.453Z,4.40
2017-12-11T09:52:14.828Z,4.30
2017-12-11T09:54:43.307Z,4.30
2017-12-11T09:57:11.895Z,4.40
2017-12-11T09:59:40.264Z,4.40
2017-12-11T10:02:08.648Z,4.40
2017-12-11T10:04:37.249Z,4.50
2017-12-11T10:07:05.612Z,4.50
2017-12-11T10:09:35.056Z,4.60
2017-12-11T10:12:03.616Z,4.60
2017-12-11T10:14:33.525Z,4.50
2017-12-11T10:17:02.238Z,4.50
2017-12-11T10:19:32.111Z,4.50
2017-12-11T10:22:00.504Z,4.50
2017-12-11T10:24:28.911Z,4.60
2017-12-11T10:26:57.558Z,4.60
2017-12-11T10:29:25.930Z,4.60
2017-12-11T10:31:54.306Z,4.60
2017-12-11T10:34:22.674Z,4.70
2017-12-11T10:36:51.474Z,4.70
2017-12-11T10:39:19.948Z,4.70
2017-12-11T10:41:48.354Z,4.70
2017-12-11T10:44:16.722Z,4.80
2017-12-11T10:46:45.710Z,4.90
2017-12-11T10:49:14.173Z,5.00
2017-12-11T10:51:43.565Z,5.00
2017-12-11T10:54:11.942Z,5.00
2017-12-11T10:56:41.350Z,4.90
2017-12-11T10:59:10.637Z,4.90
2017-12-11T11:01:39.389Z,4.90
2017-12-11T11:04:08.228Z,4.90
2017-12-11T11:06:36.913Z,4.90
2017-12-11T11:09:04.913Z,5.00
2017-12-11T11:11:33.555Z,5.00
2017-12-11T11:14:02.972Z,5.10
2017-12-11T11:16:31.355Z,5.10
2017-12-11T11:19:01.013Z,5.00
2017-12-11T11:21:29.529Z,5.00
2017-12-11T11:23:57.917Z,5.00
2017-12-11T11:26:26.290Z,5.00
2017-12-11T11:28:55.699Z,5.00
2017-12-11T11:31:24.092Z,5.00
2017-12-11T11:33:52.941Z,5.10
2017-12-11T11:36:21.542Z,5.10
2017-12-11T11:38:50.090Z,5.10
2017-12-11T11:41:18.532Z,5.10
2017-12-11T11:43:48.818Z,5.00
2017-12-11T11:46:17.334Z,5.00
2017-12-11T11:48:45.980Z,5.00
2017-12-11T11:51:14.352Z,5.10
2017-12-11T11:53:42.742Z,5.00
2017-12-11T11:56:10.472Z,5.00
2017-12-11T11:58:38.617Z,5.00
2017-12-11T12:01:06.601Z,4.90
2017-12-11T12:03:36.221Z,5.00
2017-12-11T12:06:05.685Z,4.90
2017-12-11T12:08:34.230Z,4.90
2017-12-11T12:11:02.265Z,5.00
2017-12-11T12:13:31.232Z,5.00
2017-12-11T12:16:00.099Z,5.00
2017-12-11T12:18:29.295Z,5.10
2017-12-11T12:20:58.380Z,5.10
2017-12-11T12:23:27.066Z,5.10
2017-12-11T12:25:56.538Z,5.10
2017-12-11T12:28:25.665Z,5.10
2017-12-11T12:30:54.273Z,5.20
2017-12-11T12:33:22.260Z,5.20
2017-12-11T12:35:51.402Z,5.10
2017-12-11T12:38:19.872Z,5.10
2017-12-11T12:40:48.089Z,5.10
2017-12-11T12:43:16.516Z,5.10
2017-12-11T12:45:44.898Z,5.10
2017-12-11T12:48:13.596Z,5.10
2017-12-11T12:50:42.278Z,5.10
2017-12-11T12:53:11.716Z,5.10
2017-12-11T12:55:40.097Z,5.10
2017-12-11T12:58:08.474Z,5.10
2017-12-11T13:00:37.290Z,5.10
2017-12-11T13:03:05.938Z,5.10
2017-12-11T13:05:34.402Z,5.10
2017-12-11T13:08:03.830Z,5.00
2017-12-11T13:10:32.480Z,5.00
2017-12-11T13:13:01.556Z,5.00
2017-12-11T13:15:30.385Z,5.00
2017-12-11T13:17:59.051Z,5.10
2017-12-11T13:20:27.416Z,5.00
2017-12-11T13:22:56.069Z,5.00
2017-12-11T13:25:25.321Z,4.90
2017-12-11T13:27:53.845Z,4.90
2017-12-11T13:30:22.498Z,5.00
2017-12-11T13:32:50.885Z,4.90
2017-12-11T13:35:20.151Z,5.00
2017-12-11T13:37:49.579Z,5.10
2017-12-11T13:40:18.217Z,5.10
2017-12-11T13:42:46.879Z,5.20
2017-12-11T13:45:15.785Z,5.20
2017-12-11T13:47:45.126Z,5.40
2017-12-11T13:50:13.717Z,5.40
2017-12-11T13:52:42.115Z,5.40
2017-12-11T13:55:10.485Z,5.50
2017-12-11T13:57:39.044Z,5.60
2017-12-11T14:00:07.426Z,5.80
2017-12-11T14:02:35.870Z,5.90
2017-12-11T14:05:04.554Z,5.90
2017-12-11T14:07:32.938Z,6.00
2017-12-11T14:10:01.570Z,6.10
2017-12-11T14:12:29.958Z,6.20
2017-12-11T14:14:59.174Z,6.30
2017-12-11T14:17:27.633Z,6.30
2017-12-11T14:19:56.094Z,6.40
2017-12-11T14:22:24.477Z,6.50
2017-12-11T14:24:52.861Z,6.70
2017-12-11T14:27:21.503Z,6.90
2017-12-11T14:29:49.933Z,7.00
2017-12-11T14:32:19.400Z,7.00
2017-12-11T14:34:48.037Z,7.00
2017-12-11T14:37:16.622Z,7.10
2017-12-11T14:39:45.255Z,7.10
2017-12-11T14:42:13.623Z,7.10
2017-12-11T14:44:43.437Z,7.00
2017-12-11T14:47:11.814Z,7.10
2017-12-11T14:49:41.283Z,7.10
2017-12-11T14:52:09.675Z,7.10
2017-12-11T14:54:38.451Z,7.10
2017-12-11T14:57:07.095Z,7.10
2017-12-11T14:59:35.557Z,7.10
2017-12-11T15:02:03.598Z,7.10
2017-12-11T15:04:31.974Z,7.00
2017-12-11T15:07:01.510Z,7.00
2017-12-11T15:09:29.896Z,6.90
2017-12-11T15:11:58.554Z,6.80
2017-12-11T15:14:27.146Z,6.90
2017-12-11T15:16:55.506Z,6.80
2017-12-11T15:19:23.597Z,6.80
2017-12-11T15:21:51.982Z,6.80
2017-12-11T15:24:20.367Z,6.80
2017-12-11T15:26:48.993Z,6.80
2017-12-11T15:29:17.815Z,6.70
2017-12-11T15:31:46.886Z,6.70
2017-12-11T15:34:14.875Z,6.70
2017-12-11T15:36:43.149Z,6.70
2017-12-11T15:39:11.877Z,6.80
2017-12-11T15:41:41.243Z,6.80
2017-12-11T15:44:09.457Z,6.80
2017-12-11T15:46:38.399Z,6.90
2017-12-11T15:49:07.817Z,6.90
2017-12-11T15:51:36.207Z,6.90
2017-12-11T15:54:04.304Z,6.90
2017-12-11T15:56:33.446Z,7.10
2017-12-11T15:59:01.844Z,7.00
2017-12-11T16:01:30.502Z,7.20
2017-12-11T16:03:59.217Z,7.30
2017-12-11T16:06:27.983Z,7.50
2017-12-11T16:08:56.637Z,7.60
2017-12-11T16:11:25.010Z,7.60
2017-12-11T16:13:53.831Z,7.50
2017-12-11T16:16:22.219Z,7.50
2017-12-11T16:18:50.862Z,7.40
2017-12-11T16:21:19.249Z,7.30
2017-12-11T16:23:48.483Z,7.10
2017-12-11T16:26:17.766Z,7.10
2017-12-11T16:28:47.186Z,6.60
2017-12-11T16:31:16.258Z,6.60
2017-12-11T16:33:44.767Z,6.10
2017-12-11T16:36:13.151Z,5.50
2017-12-11T16:38:41.462Z,5.20
2017-12-11T16:41:10.601Z,4.80
2017-12-11T16:43:38.941Z,4.80
2017-12-11T16:46:07.318Z,4.70
2017-12-11T16:48:35.961Z,4.70
2017-12-11T16:51:04.625Z,4.60
2017-12-11T16:53:33.302Z,4.50
2017-12-11T16:56:02.070Z,4.50
2017-12-11T16:58:30.525Z,4.50
2017-12-11T17:00:59.636Z,4.50
2017-12-11T17:03:27.939Z,4.60
2017-12-11T17:05:56.698Z,4.50
2017-12-11T17:08:25.346Z,4.50
2017-12-11T17:10:53.846Z,4.50
2017-12-11T17:13:23.990Z,4.50
2017-12-11T17:15:53.403Z,4.40
2017-12-11T17:18:23.080Z,4.40
2017-12-11T17:20:51.990Z,4.30
2017-12-11T17:23:20.625Z,4.30
2017-12-11T17:25:49.714Z,4.20
2017-12-11T17:28:18.596Z,4.20
2017-12-11T17:30:47.258Z,4.10
2017-12-11T17:33:15.623Z,4.10
2017-12-11T17:35:44.482Z,4.20
2017-12-11T17:38:13.127Z,4.10
2017-12-11T17:40:41.568Z,4.20
2017-12-11T17:43:09.626Z,4.10
2017-12-11T17:45:38.770Z,4.00
2017-12-11T17:48:07.250Z,4.00
2017-12-11T17:50:35.573Z,3.90
2017-12-11T17:53:04.216Z,3.80
2017-12-11T17:55:32.529Z,3.80
2017-12-11T17:58:01.181Z,3.80
2017-12-11T18:00:29.847Z,3.80
2017-12-11T18:02:58.243Z,3.80
2017-12-11T18:05:26.899Z,3.80
2017-12-11T18:07:55.363Z,3.80
2017-12-11T18:10:23.744Z,3.80
2017-12-11T18:12:52.143Z,3.80
2017-12-11T18:15:20.608Z,3.80
2017-12-11T18:17:48.982Z,3.80
2017-12-11T18:20:18.026Z,3.80
2017-12-11T18:22:46.398Z,3.70
2017-12-11T18:25:15.570Z,3.70
2017-12-11T18:27:44.070Z,3.60
2017-12-11T18:30:12.456Z,3.60
2017-12-11T18:32:41.518Z,3.60
2017-12-11T18:35:10.740Z,3.50
2017-12-11T18:37:39.403Z,3.50
2017-12-11T18:40:08.216Z,3.60
2017-12-11T18:42:36.766Z,3.70
2017-12-11T18:45:05.262Z,3.80
2017-12-11T18:47:33.635Z,3.80
2017-12-11T18:50:02.417Z,3.90
2017-12-11T18:52:31.069Z,4.00
2017-12-11T18:54:59.442Z,4.00
2017-12-11T18:57:28.107Z,4.10
2017-12-11T18:59:56.759Z,4.20
2017-12-11T19:02:25.273Z,4.20
2017-12-11T19:04:53.856Z,4.20
2017-12-11T19:07:22.663Z,4.30
2017-12-11T19:09:52.933Z,4.30
2017-12-11T19:12:21.591Z,4.30
2017-12-11T19:14:49.969Z,4.40
2017-12-11T19:17:18.618Z,4.40
2017-12-11T19:19:47.268Z,4.50
2017-12-11T19:22:15.009Z,4.40
2017-12-11T19:24:43.055Z,4.50
2017-12-11T19:27:11.728Z,4.40
2017-12-11T19:29:41.184Z,4.50
2017-12-11T19:32:09.198Z,4.50
2017-12-11T19:34:38.786Z,4.60
2017-12-11T19:37:07.086Z,4.50
2017-12-11T19:39:35.718Z,4.60
2017-12-11T19:42:03.806Z,4.60
2017-12-11T19:44:32.428Z,4.60
2017-12-11T19:47:01.068Z,4.60
2017-12-11T19:49:29.700Z,4.60
2017-12-11T19:51:58.339Z,4.60
2017-12-11T19:54:26.867Z,4.50
2017-12-11T19:56:55.519Z,4.50
2017-12-11T19:59:24.161Z,4.50
2017-12-11T20:01:52.557Z,4.50
2017-12-11T20:04:21.078Z,4.50
2017-12-11T20:06:51.121Z,4.40
2017-12-11T20:09:20.539Z,4.50
2017-12-11T20:11:49.995Z,4.40
2017-12-11T20:14:18.635Z,4.40
2017-12-11T20:16:47.513Z,4.40
2017-12-11T20:19:15.957Z,4.50
2017-12-11T20:21:44.339Z,4.50
2017-12-11T20:24:12.981Z,4.50
2017-12-11T20:26:41.460Z,4.50
2017-12-11T20:29:09.830Z,4.70
2017-12-11T20:31:38.470Z,4.80
2017-12-11T20:34:06.878Z,4.80
2017-12-11T20:36:35.510Z,4.80
2017-12-11T20:39:03.202Z,4.80
2017-12-11T20:41:31.893Z,4.90
2017-12-11T20:44:00.704Z,5.00
2017-12-11T20:46:29.166Z,5.00
2017-12-11T20:48:57.708Z,5.00
2017-12-11T20:51:26.850Z,5.20
2017-12-11T20:53:55.490Z,5.20
2017-12-11T20:56:24.597Z,5.20
2017-12-11T20:58:52.970Z,5.20
2017-12-11T21:01:21.636Z,5.20
2017-12-11T21:03:50.787Z,5.20
2017-12-11T21:06:19.333Z,5.20
2017-12-11T21:08:48.050Z,5.20
2017-12-11T21:11:16.443Z,5.30
2017-12-11T21:13:45.115Z,5.30
2017-12-11T21:16:12.833Z,5.40
2017-12-11T21:18:41.657Z,5.40
2017-12-11T21:21:09.704Z,5.40
2017-12-11T21:23:38.066Z,5.40
2017-12-11T21:26:07.230Z,5.40
2017-12-11T21:28:35.702Z,5.40
2017-12-11T21:31:04.092Z,5.40
2017-12-11T21:33:32.607Z,5.50
2017-12-11T21:36:01.746Z,5.50
2017-12-11T21:38:30.118Z,5.50
2017-12-11T21:40:58.506Z,5.50
2017-12-11T21:43:26.905Z,5.50
2017-12-11T21:45:55.273Z,5.50
2017-12-11T21:48:23.329Z,5.60
2017-12-11T21:50:51.704Z,5.60
2017-12-11T21:53:20.081Z,5.60
2017-12-11T21:55:48.333Z,5.60
2017-12-11T21:58:16.374Z,5.60
2017-12-11T22:00:45.517Z,5.60
2017-12-11T22:03:13.902Z,5.50
2017-12-11T22:05:42.316Z,5.50
2017-12-11T22:08:11.132Z,5.50
2017-12-11T22:10:39.194Z,5.50
2017-12-11T22:13:08.425Z,5.40
2017-12-11T22:15:36.154Z,5.30
2017-12-11T22:18:04.206Z,5.30
2017-12-11T22:20:33.342Z,5.10
2017-12-11T22:23:01.060Z,5.10
2017-12-11T22:25:29.119Z,5.00
2017-12-11T22:27:57.573Z,4.90
2017-12-11T22:30:25.949Z,4.90
2017-12-11T22:32:54.007Z,4.80
2017-12-11T22:35:22.387Z,4.70
2017-12-11T22:37:50.771Z,4.60
2017-12-11T22:40:19.165Z,4.60
2017-12-11T22:42:47.537Z,4.50
2017-12-11T22:45:16.114Z,4.50
2017-12-11T22:47:44.509Z,4.40
2017-12-11T22:50:12.694Z,4.40
2017-12-11T22:52:40.732Z,4.30
2017-12-11T22:55:08.778Z,4.30
2017-12-11T22:57:38.446Z,4.30
2017-12-11T23:00:06.486Z,4.20
2017-12-11T23:02:34.874Z,4.20
2017-12-11T23:05:02.916Z,4.20
2017-12-11T23:07:30.960Z,4.20
2017-12-11T23:10:00.121Z,4.10
2017-12-11T23:12:28.544Z,4.10
2017-12-11T23:14:56.913Z,3.90
2017-12-11T23:17:25.353Z,4.10
2017-12-11T23:19:54.627Z,4.10
2017-12-11T23:22:23.001Z,4.10
2017-12-11T23:24:51.381Z,4.00
2017-12-11T23:27:19.765Z,4.00
2017-12-11T23:29:48.137Z,4.00
2017-12-11T23:32:16.515Z,4.00
2017-12-11T23:34:44.892Z,4.00
2017-12-11T23:37:13.265Z,4.00
2017-12-11T23:39:41.651Z,4.00
2017-12-11T23:42:10.022Z,3.90
2017-12-11T23:44:38.406Z,3.90
2017-12-11T23:47:06.794Z,3.90
2017-12-11T23:49:35.170Z,3.90
2017-12-11T23:52:03.542Z,3.80
2017-12-11T23:54:33.942Z,3.80
2017-12-11T23:57:02.326Z,3.80
2017-12-11T23:59:30.708Z,3.80
